createdAt,value
2018-07-15T00:00:51.796Z,2.00
2018-07-15T00:03:20.704Z,2.13
2018-07-15T00:05:49.524Z,5.83
2018-07-15T00:08:18.498Z,2.30
2018-07-15T00:10:47.668Z,3.37
2018-07-15T00:13:16.559Z,2.50
2018-07-15T00:15:45.692Z,2.67
2018-07-15T00:18:14.724Z,2.97
2018-07-15T00:20:43.501Z,3.63
2018-07-15T00:23:12.330Z,2.33
2018-07-15T00:25:41.135Z,2.30
2018-07-15T00:28:10.167Z,3.20
2018-07-15T00:30:38.971Z,2.80
2018-07-15T00:33:07.973Z,3.00
2018-07-15T00:35:36.893Z,3.27
2018-07-15T00:38:05.727Z,3.70
2018-07-15T00:40:34.538Z,3.17
2018-07-15T00:43:03.387Z,4.43
2018-07-15T00:45:32.228Z,2.40
2018-07-15T00:48:01.045Z,2.77
2018-07-15T00:50:29.855Z,2.80
2018-07-15T00:52:58.913Z,2.70
2018-07-15T00:55:27.708Z,2.57
2018-07-15T00:57:56.550Z,2.97
2018-07-15T01:00:30.635Z,3.20
2018-07-15T01:02:59.457Z,3.57
2018-07-15T01:05:28.260Z,3.57
2018-07-15T01:07:57.223Z,3.53
2018-07-15T01:10:26.084Z,5.03
2018-07-15T01:12:55.005Z,2.77
2018-07-15T01:15:23.754Z,2.90
2018-07-15T01:17:52.674Z,3.33
2018-07-15T01:20:22.537Z,3.43
2018-07-15T01:22:51.337Z,3.43
2018-07-15T01:25:20.400Z,4.87
2018-07-15T01:27:49.281Z,4.27
2018-07-15T01:30:18.310Z,3.53
2018-07-15T01:32:47.303Z,4.20
2018-07-15T01:35:16.288Z,4.47
2018-07-15T01:37:45.289Z,3.83
2018-07-15T01:40:14.210Z,5.20
2018-07-15T01:42:43.154Z,3.90
2018-07-15T01:45:11.960Z,5.13
2018-07-15T01:47:40.850Z,5.03
2018-07-15T01:50:09.710Z,4.23
2018-07-15T01:52:38.644Z,4.10
2018-07-15T01:55:07.517Z,4.00
2018-07-15T01:57:36.412Z,7.10
2018-07-15T02:00:05.614Z,4.70
2018-07-15T02:02:34.536Z,3.73
2018-07-15T02:05:03.519Z,10.17
2018-07-15T02:07:32.459Z,4.50
2018-07-15T02:10:01.374Z,4.93
2018-07-15T02:12:30.215Z,5.03
2018-07-15T02:14:59.143Z,4.73
2018-07-15T02:17:27.946Z,6.03
2018-07-15T02:19:56.972Z,6.87
2018-07-15T02:22:25.843Z,4.50
2018-07-15T02:24:54.677Z,6.50
2018-07-15T02:27:23.472Z,7.57
2018-07-15T02:29:52.496Z,4.13
2018-07-15T02:32:21.313Z,5.53
2018-07-15T02:34:50.177Z,5.13
2018-07-15T02:37:19.006Z,5.20
2018-07-15T02:39:47.914Z,4.20
2018-07-15T02:42:16.752Z,3.77
2018-07-15T02:44:45.927Z,4.17
2018-07-15T02:47:14.743Z,6.37
2018-07-15T02:49:43.557Z,10.23
2018-07-15T02:52:12.386Z,4.30
2018-07-15T02:54:41.335Z,3.93
2018-07-15T02:57:10.141Z,4.80
2018-07-15T02:59:38.976Z,4.70
2018-07-15T03:02:07.961Z,7.10
2018-07-15T03:04:36.981Z,4.90
2018-07-15T03:07:05.899Z,5.13
2018-07-15T03:09:34.783Z,5.33
2018-07-15T03:12:03.700Z,4.23
2018-07-15T03:14:32.757Z,3.57
2018-07-15T03:17:01.817Z,4.40
2018-07-15T03:19:30.896Z,4.07
2018-07-15T03:21:59.942Z,4.30
2018-07-15T03:24:28.862Z,5.80
2018-07-15T03:26:57.889Z,4.67
2018-07-15T03:29:26.833Z,5.47
2018-07-15T03:31:55.786Z,4.80
2018-07-15T03:34:24.784Z,4.20
2018-07-15T03:36:53.944Z,4.50
2018-07-15T03:39:23.665Z,4.80
2018-07-15T03:41:52.628Z,4.87
2018-07-15T03:44:21.436Z,5.57
2018-07-15T03:46:50.454Z,5.23
2018-07-15T03:49:19.417Z,7.00
2018-07-15T03:51:48.290Z,6.37
2018-07-15T03:54:17.635Z,4.80
2018-07-15T03:56:46.535Z,5.63
2018-07-15T03:59:15.519Z,5.73
2018-07-15T04:01:44.352Z,8.33
2018-07-15T04:04:13.252Z,4.83
2018-07-15T04:06:42.224Z,4.90
2018-07-15T04:09:11.192Z,5.40
2018-07-15T04:11:40.180Z,5.87
2018-07-15T04:14:08.972Z,5.00
2018-07-15T04:16:38.070Z,5.77
2018-07-15T04:19:06.903Z,7.00
2018-07-15T04:21:35.840Z,6.50
2018-07-15T04:24:04.760Z,7.37
2018-07-15T04:26:33.623Z,8.10
2018-07-15T04:29:02.540Z,6.53
2018-07-15T04:31:31.369Z,8.53
2018-07-15T04:34:00.165Z,5.47
2018-07-15T04:36:29.056Z,7.90
2018-07-15T04:38:57.900Z,6.83
2018-07-15T04:41:26.715Z,13.53
2018-07-15T04:43:55.603Z,6.20
2018-07-15T04:46:24.388Z,6.47
2018-07-15T04:48:53.208Z,7.20
2018-07-15T04:51:22.155Z,7.53
2018-07-15T04:53:50.935Z,6.60
2018-07-15T04:56:19.907Z,7.30
2018-07-15T04:58:48.752Z,6.87
2018-07-15T05:01:17.578Z,9.00
2018-07-15T05:03:46.555Z,11.97
2018-07-15T05:06:16.072Z,7.23
2018-07-15T05:08:45.050Z,8.03
2018-07-15T05:11:14.002Z,6.90
2018-07-15T05:13:42.988Z,8.00
2018-07-15T05:16:11.941Z,9.40
2018-07-15T05:18:41.007Z,8.33
2018-07-15T05:21:09.826Z,8.07
2018-07-15T05:23:38.828Z,7.50
2018-07-15T05:26:07.685Z,7.80
2018-07-15T05:28:36.663Z,7.47
2018-07-15T05:31:05.701Z,6.67
2018-07-15T05:33:34.554Z,8.63
2018-07-15T05:36:03.467Z,7.70
2018-07-15T05:38:32.365Z,7.47
2018-07-15T05:41:01.216Z,6.37
2018-07-15T05:43:30.168Z,7.00
2018-07-15T05:45:58.957Z,5.77
2018-07-15T05:48:27.904Z,6.50
2018-07-15T05:51:08.168Z,6.77
2018-07-15T05:53:37.376Z,4.70
2018-07-15T05:56:06.275Z,5.20
2018-07-15T05:58:35.159Z,4.30
2018-07-15T06:01:04.089Z,4.00
2018-07-15T06:03:33.055Z,5.63
2018-07-15T06:06:01.965Z,5.10
2018-07-15T06:08:30.835Z,3.10
2018-07-15T06:10:59.814Z,4.43
2018-07-15T06:13:28.683Z,3.13
2018-07-15T06:15:57.591Z,2.93
2018-07-15T06:18:26.532Z,4.00
2018-07-15T06:20:55.340Z,3.03
2018-07-15T06:23:24.412Z,3.70
2018-07-15T06:25:53.372Z,3.93
2018-07-15T06:28:22.436Z,4.63
2018-07-15T06:30:51.459Z,3.50
2018-07-15T06:33:20.395Z,3.27
2018-07-15T06:35:49.371Z,3.67
2018-07-15T06:38:18.385Z,3.83
2018-07-15T06:40:47.452Z,3.33
2018-07-15T06:43:16.425Z,3.90
2018-07-15T06:45:45.312Z,3.83
2018-07-15T06:48:14.219Z,3.50
2018-07-15T06:50:43.323Z,3.33
2018-07-15T06:53:12.420Z,3.17
2018-07-15T06:55:41.327Z,3.50
2018-07-15T06:58:10.292Z,3.37
2018-07-15T07:00:39.174Z,3.67
2018-07-15T07:03:08.011Z,3.83
2018-07-15T07:05:37.002Z,3.87
2018-07-15T07:08:05.962Z,4.70
2018-07-15T07:10:34.861Z,3.40
2018-07-15T07:13:03.894Z,3.20
2018-07-15T07:15:32.798Z,4.40
2018-07-15T07:18:01.844Z,3.43
2018-07-15T07:20:30.814Z,3.70
2018-07-15T07:22:59.801Z,6.10
2018-07-15T07:25:28.749Z,3.60
2018-07-15T07:27:57.664Z,4.23
2018-07-15T07:30:26.692Z,5.57
2018-07-15T07:32:55.618Z,6.20
2018-07-15T07:35:24.656Z,4.90
2018-07-15T07:37:53.512Z,6.80
2018-07-15T07:40:22.437Z,5.63
2018-07-15T07:42:51.384Z,6.97
2018-07-15T07:45:20.402Z,3.30
2018-07-15T07:47:49.317Z,6.07
2018-07-15T07:50:18.194Z,3.23
2018-07-15T07:52:47.200Z,2.80
2018-07-15T07:55:16.142Z,2.40
2018-07-15T07:57:45.232Z,3.23
2018-07-15T08:00:14.044Z,2.93
2018-07-15T08:02:42.937Z,2.60
2018-07-15T08:05:11.805Z,3.00
2018-07-15T08:07:40.707Z,4.23
2018-07-15T08:10:09.660Z,2.57
2018-07-15T08:12:38.564Z,3.30
2018-07-15T08:15:07.561Z,4.13
2018-07-15T08:17:36.420Z,2.83
2018-07-15T08:20:05.485Z,4.30
2018-07-15T08:22:34.534Z,2.57
2018-07-15T08:25:03.460Z,3.67
2018-07-15T08:27:32.580Z,3.03
2018-07-15T08:30:12.453Z,3.10
2018-07-15T08:32:41.421Z,3.33
2018-07-15T08:35:10.691Z,3.03
2018-07-15T08:37:39.656Z,2.87
2018-07-15T08:40:08.641Z,3.40
2018-07-15T08:42:37.558Z,3.30
2018-07-15T08:45:06.469Z,4.53
2018-07-15T08:47:35.365Z,2.83
2018-07-15T08:50:04.385Z,3.17
2018-07-15T08:52:33.343Z,2.97
2018-07-15T08:55:02.492Z,3.47
2018-07-15T08:57:31.385Z,2.83
2018-07-15T09:00:00.310Z,5.17
2018-07-15T09:02:29.233Z,4.10
2018-07-15T09:04:58.191Z,5.20
2018-07-15T09:07:27.195Z,3.60
2018-07-15T09:09:56.243Z,2.73
2018-07-15T09:12:25.136Z,2.60
2018-07-15T09:14:54.172Z,5.50
2018-07-15T09:17:23.288Z,2.87
2018-07-15T09:19:52.320Z,3.10
2018-07-15T09:22:21.209Z,2.50
2018-07-15T09:24:50.141Z,2.90
2018-07-15T09:27:19.140Z,2.50
2018-07-15T09:29:48.021Z,2.03
2018-07-15T09:32:16.881Z,2.83
2018-07-15T09:34:45.823Z,2.30
2018-07-15T09:37:14.775Z,2.53
2018-07-15T09:39:43.679Z,2.40
2018-07-15T09:42:12.589Z,2.83
2018-07-15T09:44:41.489Z,2.30
2018-07-15T09:47:10.448Z,2.70
2018-07-15T09:49:39.376Z,2.50
2018-07-15T09:52:08.369Z,2.67
2018-07-15T09:54:37.299Z,4.53
2018-07-15T09:57:06.314Z,6.10
2018-07-15T09:59:35.232Z,2.87
2018-07-15T10:02:04.181Z,2.37
2018-07-15T10:04:33.146Z,2.37
2018-07-15T10:07:02.156Z,1.90
2018-07-15T10:09:31.158Z,2.80
2018-07-15T10:12:00.230Z,2.17
2018-07-15T10:14:29.130Z,2.67
2018-07-15T10:16:57.992Z,2.40
2018-07-15T10:19:26.974Z,2.67
2018-07-15T10:21:56.047Z,3.43
2018-07-15T10:24:24.978Z,2.97
2018-07-15T10:26:53.822Z,2.77
2018-07-15T10:29:22.800Z,2.43
2018-07-15T10:31:51.870Z,3.80
2018-07-15T10:34:20.821Z,2.90
2018-07-15T10:36:49.780Z,2.73
2018-07-15T10:39:18.699Z,2.90
2018-07-15T10:41:47.587Z,3.03
2018-07-15T10:44:16.531Z,2.90
2018-07-15T10:46:45.497Z,2.97
2018-07-15T10:49:14.400Z,2.70
2018-07-15T10:51:43.434Z,3.03
2018-07-15T10:54:12.359Z,2.63
2018-07-15T10:56:41.301Z,3.27
2018-07-15T10:59:10.332Z,2.80
2018-07-15T11:01:39.225Z,3.57
2018-07-15T11:04:08.260Z,4.20
2018-07-15T11:06:37.183Z,2.93
2018-07-15T11:09:07.840Z,5.93
2018-07-15T11:11:36.829Z,3.50
2018-07-15T11:14:05.719Z,4.70
2018-07-15T11:16:34.731Z,3.90
2018-07-15T11:19:03.786Z,3.53
2018-07-15T11:21:32.805Z,3.60
2018-07-15T11:24:01.718Z,7.53
2018-07-15T11:26:30.666Z,3.57
2018-07-15T11:28:59.573Z,6.43
2018-07-15T11:31:28.615Z,3.97
2018-07-15T11:33:57.496Z,3.40
2018-07-15T11:36:26.623Z,5.70
2018-07-15T11:38:55.621Z,6.47
2018-07-15T11:41:24.504Z,3.03
2018-07-15T11:43:53.440Z,4.67
2018-07-15T11:46:22.384Z,3.83
2018-07-15T11:48:51.383Z,4.60
2018-07-15T11:51:20.338Z,5.93
2018-07-15T11:53:49.257Z,3.83
2018-07-15T11:56:18.222Z,3.80
2018-07-15T11:58:48.160Z,3.83
2018-07-15T12:01:17.078Z,4.27
2018-07-15T12:03:45.976Z,3.87
2018-07-15T12:06:14.897Z,3.53
2018-07-15T12:08:43.818Z,3.30
2018-07-15T12:11:12.774Z,5.97
2018-07-15T12:13:41.756Z,3.70
2018-07-15T12:16:10.721Z,5.33
2018-07-15T12:18:39.575Z,5.10
2018-07-15T12:21:08.579Z,5.50
2018-07-15T12:23:37.372Z,14.63
2018-07-15T12:26:06.668Z,3.50
2018-07-15T12:28:35.826Z,4.07
2018-07-15T12:31:05.197Z,3.70
2018-07-15T12:33:34.092Z,3.50
2018-07-15T12:36:03.016Z,4.07
2018-07-15T12:38:31.957Z,3.73
2018-07-15T12:41:00.859Z,3.50
2018-07-15T12:43:29.755Z,4.10
2018-07-15T12:45:58.691Z,3.70
2018-07-15T12:48:27.555Z,4.20
2018-07-15T12:50:56.508Z,4.27
2018-07-15T12:53:25.395Z,4.57
2018-07-15T12:55:54.364Z,3.87
2018-07-15T12:58:23.281Z,3.70
2018-07-15T13:00:52.215Z,4.03
2018-07-15T13:03:21.141Z,4.67
2018-07-15T13:05:50.100Z,6.30
2018-07-15T13:08:18.937Z,3.60
2018-07-15T13:10:47.896Z,4.20
2018-07-15T13:13:16.901Z,3.50
2018-07-15T13:15:45.754Z,3.40
2018-07-15T13:18:14.878Z,3.50
2018-07-15T13:20:43.851Z,3.20
2018-07-15T13:23:12.860Z,5.67
2018-07-15T13:25:41.949Z,3.50
2018-07-15T13:28:10.859Z,3.70
2018-07-15T13:30:39.908Z,4.70
2018-07-15T13:33:08.937Z,3.40
2018-07-15T13:35:37.934Z,3.80
2018-07-15T13:38:07.200Z,3.50
2018-07-15T13:40:36.210Z,3.50
2018-07-15T13:43:05.305Z,3.60
2018-07-15T13:45:34.324Z,3.60
2018-07-15T13:48:03.337Z,4.03
2018-07-15T13:50:32.368Z,3.47
2018-07-15T13:53:01.298Z,4.20
2018-07-15T13:55:30.179Z,3.50
2018-07-15T13:57:59.168Z,4.10
2018-07-15T14:00:28.198Z,3.73
2018-07-15T14:02:57.385Z,4.10
2018-07-15T14:05:26.377Z,4.57
2018-07-15T14:07:55.477Z,4.63
2018-07-15T14:10:24.376Z,3.67
2018-07-15T14:12:53.435Z,4.00
2018-07-15T14:15:22.422Z,3.83
2018-07-15T14:17:51.572Z,5.50
2018-07-15T14:20:20.532Z,3.80
2018-07-15T14:22:49.472Z,4.50
2018-07-15T14:25:18.412Z,4.03
2018-07-15T14:27:47.365Z,4.57
2018-07-15T14:30:16.229Z,4.20
2018-07-15T14:32:45.239Z,9.30
2018-07-15T14:35:14.145Z,5.03
2018-07-15T14:37:43.205Z,4.80
2018-07-15T14:40:12.135Z,5.10
2018-07-15T14:42:41.041Z,4.30
2018-07-15T14:45:09.927Z,4.60
2018-07-15T14:47:38.861Z,4.20
2018-07-15T14:50:07.753Z,5.30
2018-07-15T14:52:36.712Z,7.70
2018-07-15T14:55:05.730Z,6.63
2018-07-15T14:57:34.688Z,4.13
2018-07-15T15:00:03.765Z,4.77
2018-07-15T15:02:32.779Z,4.30
2018-07-15T15:05:01.679Z,4.40
2018-07-15T15:07:30.564Z,4.53
2018-07-15T15:09:59.674Z,4.23
2018-07-15T15:12:28.819Z,4.00
2018-07-15T15:14:57.738Z,3.73
2018-07-15T15:17:26.637Z,4.30
2018-07-15T15:19:55.599Z,3.80
2018-07-15T15:22:24.643Z,3.90
2018-07-15T15:24:53.529Z,5.60
2018-07-15T15:27:22.445Z,4.47
2018-07-15T15:29:51.447Z,3.80
2018-07-15T15:32:20.288Z,6.40
2018-07-15T15:34:49.149Z,4.10
2018-07-15T15:37:18.140Z,5.00
2018-07-15T15:39:47.090Z,4.23
2018-07-15T15:42:16.015Z,3.93
2018-07-15T15:44:44.995Z,3.87
2018-07-15T15:47:14.041Z,3.60
2018-07-15T15:49:43.180Z,4.30
2018-07-15T15:52:12.179Z,4.13
2018-07-15T15:54:41.164Z,3.77
2018-07-15T15:57:10.077Z,4.17
2018-07-15T15:59:39.185Z,4.00
2018-07-15T16:02:08.220Z,6.93
2018-07-15T16:04:37.437Z,4.20
2018-07-15T16:07:06.513Z,3.80
2018-07-15T16:09:35.660Z,4.03
2018-07-15T16:12:04.600Z,4.03
2018-07-15T16:14:33.629Z,5.40
2018-07-15T16:17:02.555Z,4.73
2018-07-15T16:19:31.469Z,6.07
2018-07-15T16:22:00.353Z,4.03
2018-07-15T16:24:29.492Z,3.80
2018-07-15T16:26:58.376Z,3.70
2018-07-15T16:29:27.292Z,4.20
2018-07-15T16:31:56.165Z,4.03
2018-07-15T16:34:25.091Z,4.60
2018-07-15T16:36:54.016Z,4.80
2018-07-15T16:39:22.989Z,4.00
2018-07-15T16:41:51.924Z,4.27
2018-07-15T16:44:20.851Z,4.13
2018-07-15T16:46:49.785Z,8.20
2018-07-15T16:49:18.705Z,8.10
2018-07-15T16:51:47.698Z,4.50
2018-07-15T16:54:16.760Z,4.20
2018-07-15T16:56:45.733Z,4.40
2018-07-15T16:59:14.752Z,3.60
2018-07-15T17:01:43.780Z,4.90
2018-07-15T17:04:12.818Z,4.00
2018-07-15T17:06:41.802Z,4.73
2018-07-15T17:09:10.870Z,4.20
2018-07-15T17:11:39.888Z,4.90
2018-07-15T17:14:09.172Z,4.43
2018-07-15T17:16:38.915Z,5.43
2018-07-15T17:19:07.975Z,4.83
2018-07-15T17:21:36.896Z,4.33
2018-07-15T17:24:05.837Z,4.20
2018-07-15T17:26:34.875Z,4.60
2018-07-15T17:29:03.964Z,4.30
2018-07-15T17:31:33.674Z,4.50
2018-07-15T17:34:02.631Z,3.97
2018-07-15T17:36:31.677Z,3.90
2018-07-15T17:39:00.691Z,5.03
2018-07-15T17:41:29.690Z,4.77
2018-07-15T17:43:58.684Z,4.53
2018-07-15T17:46:27.728Z,4.13
2018-07-15T17:48:56.761Z,4.00
2018-07-15T17:51:25.786Z,3.87
2018-07-15T17:53:54.837Z,4.77
2018-07-15T17:56:23.728Z,3.70
2018-07-15T17:58:52.796Z,3.83
2018-07-15T18:01:21.870Z,3.77
2018-07-15T18:03:50.871Z,3.37
2018-07-15T18:06:19.792Z,5.00
2018-07-15T18:08:48.776Z,3.40
2018-07-15T18:11:17.772Z,3.47
2018-07-15T18:13:46.728Z,3.43
2018-07-15T18:16:15.767Z,3.20
2018-07-15T18:18:44.633Z,3.00
2018-07-15T18:21:13.673Z,4.30
2018-07-15T18:23:42.636Z,5.80
2018-07-15T18:26:11.620Z,4.47
2018-07-15T18:28:40.566Z,3.30
2018-07-15T18:31:09.549Z,2.93
2018-07-15T18:33:38.440Z,3.50
2018-07-15T18:36:07.499Z,3.30
2018-07-15T18:38:36.432Z,3.50
2018-07-15T18:41:05.410Z,3.60
2018-07-15T18:43:34.635Z,4.10
2018-07-15T18:46:04.181Z,4.03
2018-07-15T18:48:33.161Z,3.53
2018-07-15T18:51:02.144Z,3.87
2018-07-15T18:53:31.054Z,3.80
2018-07-15T18:56:00.019Z,4.37
2018-07-15T18:58:29.002Z,4.10
2018-07-15T19:00:58.008Z,4.30
2018-07-15T19:03:27.137Z,4.23
2018-07-15T19:05:56.335Z,4.27
2018-07-15T19:08:25.249Z,4.00
2018-07-15T19:10:54.244Z,4.00
2018-07-15T19:13:23.179Z,4.60
2018-07-15T19:15:52.136Z,4.20
2018-07-15T19:18:21.126Z,4.00
2018-07-15T19:20:50.400Z,4.20
2018-07-15T19:23:19.285Z,4.63
2018-07-15T19:25:48.224Z,4.37
2018-07-15T19:28:17.132Z,5.10
2018-07-15T19:30:46.101Z,4.80
2018-07-15T19:33:15.385Z,4.70
2018-07-15T19:35:44.337Z,6.20
2018-07-15T19:38:13.232Z,5.30
2018-07-15T19:40:42.169Z,5.60
2018-07-15T19:43:11.076Z,5.60
2018-07-15T19:45:39.968Z,5.07
2018-07-15T19:48:09.808Z,6.60
2018-07-15T19:50:38.769Z,7.10
2018-07-15T19:53:07.623Z,5.90
2018-07-15T19:55:36.818Z,5.30
2018-07-15T19:58:05.736Z,5.90
2018-07-15T20:00:34.782Z,7.40
2018-07-15T20:03:03.697Z,10.30
2018-07-15T20:05:32.628Z,6.20
2018-07-15T20:08:01.472Z,6.40
2018-07-15T20:10:30.441Z,7.13
2018-07-15T20:12:59.496Z,9.63
2018-07-15T20:15:28.429Z,5.83
2018-07-15T20:17:57.488Z,8.03
2018-07-15T20:20:26.391Z,6.80
2018-07-15T20:22:55.264Z,9.37
2018-07-15T20:25:24.328Z,5.67
2018-07-15T20:27:53.182Z,6.60
2018-07-15T20:30:22.021Z,7.10
2018-07-15T20:32:51.015Z,5.97
2018-07-15T20:35:20.051Z,8.73
2018-07-15T20:37:49.057Z,6.90
2018-07-15T20:40:18.055Z,6.70
2018-07-15T20:42:47.050Z,8.97
2018-07-15T20:45:20.544Z,7.40
2018-07-15T20:47:55.655Z,9.90
2018-07-15T20:50:29.192Z,9.20
2018-07-15T20:52:58.218Z,7.07
2018-07-15T20:55:27.138Z,7.77
2018-07-15T20:57:56.176Z,7.43
2018-07-15T21:00:25.053Z,6.97
2018-07-15T21:02:53.987Z,6.47
2018-07-15T21:05:22.864Z,7.43
2018-07-15T21:07:51.911Z,7.23
2018-07-15T21:10:20.889Z,6.50
2018-07-15T21:12:49.792Z,7.23
2018-07-15T21:15:18.924Z,7.40
2018-07-15T21:18:12.576Z,7.73
2018-07-15T21:20:42.244Z,7.40
2018-07-15T21:23:12.140Z,8.00
2018-07-15T21:25:41.146Z,8.50
2018-07-15T21:28:10.103Z,8.50
2018-07-15T21:30:39.090Z,8.93
2018-07-15T21:33:08.204Z,7.37
2018-07-15T21:35:37.197Z,9.13
2018-07-15T21:38:06.193Z,7.83
2018-07-15T21:40:35.221Z,8.93
2018-07-15T21:43:04.276Z,10.47
2018-07-15T21:45:33.286Z,9.23
2018-07-15T21:48:02.395Z,7.90
2018-07-15T21:50:31.432Z,8.87
2018-07-15T21:53:00.724Z,8.53
2018-07-15T21:55:29.724Z,8.13
2018-07-15T21:57:58.931Z,8.40
2018-07-15T22:00:27.989Z,8.37
2018-07-15T22:02:57.160Z,7.53
2018-07-15T22:05:26.070Z,7.63
2018-07-15T22:08:05.933Z,7.93
2018-07-15T22:10:45.848Z,10.20
2018-07-15T22:13:14.906Z,8.13
2018-07-15T22:15:43.865Z,7.67
2018-07-15T22:18:12.910Z,7.50
2018-07-15T22:20:41.850Z,7.63
2018-07-15T22:23:10.928Z,8.30
2018-07-15T22:25:39.911Z,7.67
2018-07-15T22:28:08.946Z,9.80
2018-07-15T22:30:37.875Z,12.77
2018-07-15T22:33:07.177Z,8.77
2018-07-15T22:35:36.176Z,9.20
2018-07-15T22:38:05.214Z,9.10
2018-07-15T22:40:34.160Z,9.17
2018-07-15T22:43:03.221Z,9.60
2018-07-15T22:45:32.154Z,9.03
2018-07-15T22:48:01.076Z,8.50
2018-07-15T22:50:30.058Z,12.20
2018-07-15T22:52:58.972Z,9.50
2018-07-15T22:55:27.814Z,10.70
2018-07-15T22:57:56.734Z,9.00
2018-07-15T23:00:25.723Z,8.00
2018-07-15T23:02:54.733Z,11.73
2018-07-15T23:05:38.490Z,10.30
2018-07-15T23:08:07.789Z,11.43
2018-07-15T23:10:37.124Z,8.73
2018-07-15T23:13:08.044Z,9.90
2018-07-15T23:15:37.490Z,10.90
2018-07-15T23:18:07.602Z,8.57
2018-07-15T23:20:37.472Z,10.93
2018-07-15T23:23:07.302Z,8.90
2018-07-15T23:25:36.353Z,11.10
2018-07-15T23:28:06.239Z,10.43
2018-07-15T23:30:35.957Z,8.57
2018-07-15T23:33:05.319Z,12.40
2018-07-15T23:35:34.344Z,8.77
2018-07-15T23:38:03.377Z,10.60
2018-07-15T23:40:32.321Z,9.40
2018-07-15T23:43:01.874Z,9.43
2018-07-15T23:45:31.768Z,11.60
2018-07-15T23:48:00.809Z,10.50
2018-07-15T23:50:29.812Z,9.83
2018-07-15T23:52:58.828Z,9.80
2018-07-15T23:55:27.888Z,10.23
2018-07-15T23:57:57.094Z,10.93
